createdAt,value
2018-11-29T00:00:31.422Z,87.90
2018-11-29T00:03:00.132Z,88.30
2018-11-29T00:05:28.823Z,88.50
2018-11-29T00:07:57.997Z,88.30
2018-11-29T00:10:26.722Z,88.70
2018-11-29T00:12:55.400Z,88.60
2018-11-29T00:15:24.196Z,89.30
2018-11-29T00:17:53.621Z,88.70
2018-11-29T00:20:22.325Z,88.60
2018-11-29T00:22:51.710Z,89.00
2018-11-29T00:25:20.808Z,88.70
2018-11-29T00:27:49.545Z,88.40
2018-11-29T00:30:20.203Z,88.40
2018-11-29T00:32:49.161Z,88.60
2018-11-29T00:35:18.342Z,87.90
2018-11-29T00:37:47.252Z,88.40
2018-11-29T00:40:19.718Z,88.00
2018-11-29T00:42:48.505Z,87.70
2018-11-29T00:45:22.946Z,88.40
2018-11-29T00:47:52.030Z,88.40
2018-11-29T00:50:21.268Z,88.60
2018-11-29T00:52:50.730Z,87.80
2018-11-29T00:55:20.767Z,88.20
2018-11-29T00:57:50.784Z,88.80
2018-11-29T01:00:21.392Z,87.90
2018-11-29T01:02:50.330Z,87.90
2018-11-29T01:05:19.750Z,87.90
2018-11-29T01:07:48.492Z,87.70
2018-11-29T01:10:18.326Z,87.80
2018-11-29T01:12:47.578Z,87.30
2018-11-29T01:15:18.099Z,88.20
2018-11-29T01:17:47.744Z,88.30
2018-11-29T01:20:17.393Z,89.00
2018-11-29T01:22:47.429Z,88.10
2018-11-29T01:25:16.654Z,87.10
2018-11-29T01:27:47.826Z,88.10
2018-11-29T01:30:18.346Z,88.10
2018-11-29T01:32:49.043Z,88.00
2018-11-29T01:35:19.792Z,88.10
2018-11-29T01:37:48.863Z,88.10
2018-11-29T01:40:20.371Z,88.70
2018-11-29T01:42:54.941Z,87.80
2018-11-29T01:45:24.447Z,88.40
2018-11-29T01:47:53.213Z,87.50
2018-11-29T01:50:22.046Z,87.50
2018-11-29T01:52:50.767Z,88.20
2018-11-29T01:55:21.734Z,88.30
2018-11-29T01:57:51.241Z,87.60
2018-11-29T02:00:19.989Z,88.00
2018-11-29T02:02:50.825Z,88.30
2018-11-29T02:05:20.369Z,88.40
2018-11-29T02:07:49.893Z,88.70
2018-11-29T02:10:24.391Z,88.10
2018-11-29T02:12:53.530Z,88.10
2018-11-29T02:15:22.439Z,88.10
2018-11-29T02:17:52.078Z,88.50
2018-11-29T02:20:20.981Z,88.20
2018-11-29T02:22:49.689Z,88.40
2018-11-29T02:25:23.770Z,88.20
2018-11-29T02:27:52.426Z,88.20
2018-11-29T02:30:22.206Z,88.00
2018-11-29T02:32:51.216Z,88.50
2018-11-29T02:35:19.955Z,88.10
2018-11-29T02:37:48.662Z,86.40
2018-11-29T02:40:18.107Z,87.60
2018-11-29T02:42:47.692Z,87.90
2018-11-29T02:45:20.251Z,88.20
2018-11-29T02:47:49.558Z,88.40
2018-11-29T02:50:19.868Z,87.70
2018-11-29T02:52:50.556Z,87.50
2018-11-29T02:55:19.873Z,88.10
2018-11-29T02:57:49.650Z,86.40
2018-11-29T03:00:19.099Z,87.90
2018-11-29T03:02:49.017Z,86.80
2018-11-29T03:05:18.127Z,87.50
2018-11-29T03:07:47.617Z,87.00
2018-11-29T03:10:20.517Z,87.40
2018-11-29T03:12:50.678Z,87.40
2018-11-29T03:15:19.841Z,88.20
2018-11-29T03:17:49.679Z,87.40
2018-11-29T03:20:18.351Z,86.80
2018-11-29T03:22:47.673Z,86.80
2018-11-29T03:25:16.904Z,87.10
2018-11-29T03:27:46.310Z,87.40
2018-11-29T03:30:16.930Z,87.70
2018-11-29T03:32:46.259Z,87.70
2018-11-29T03:35:16.310Z,87.10
2018-11-29T03:37:45.279Z,87.50
2018-11-29T03:40:14.971Z,87.80
2018-11-29T03:42:44.027Z,86.80
2018-11-29T03:45:16.404Z,86.80
2018-11-29T03:47:45.704Z,87.60
2018-11-29T03:50:16.545Z,87.70
2018-11-29T03:52:45.314Z,87.50
2018-11-29T03:55:15.235Z,87.20
2018-11-29T03:57:44.617Z,86.40
2018-11-29T04:00:17.202Z,87.30
2018-11-29T04:02:47.005Z,87.30
2018-11-29T04:05:16.353Z,86.90
2018-11-29T04:07:45.094Z,86.80
2018-11-29T04:10:15.697Z,86.60
2018-11-29T04:12:44.413Z,86.50
2018-11-29T04:15:14.245Z,85.80
2018-11-29T04:17:43.038Z,87.10
2018-11-29T04:20:13.718Z,87.40
2018-11-29T04:22:42.461Z,87.20
2018-11-29T04:25:13.153Z,87.40
2018-11-29T04:27:41.892Z,87.40
2018-11-29T04:30:14.660Z,87.90
2018-11-29T04:32:43.436Z,87.60
2018-11-29T04:35:13.055Z,86.90
2018-11-29T04:37:41.739Z,86.80
2018-11-29T04:40:12.073Z,87.60
2018-11-29T04:42:40.761Z,86.90
2018-11-29T04:45:10.826Z,86.70
2018-11-29T04:47:40.061Z,86.50
2018-11-29T04:50:08.869Z,86.70
2018-11-29T04:52:38.338Z,86.90
2018-11-29T04:55:08.152Z,87.30
2018-11-29T04:57:37.701Z,87.20
2018-11-29T05:00:10.241Z,87.10
2018-11-29T05:02:38.912Z,87.50
2018-11-29T05:05:08.225Z,86.70
2018-11-29T05:07:37.170Z,86.60
2018-11-29T05:10:07.353Z,87.00
2018-11-29T05:12:36.000Z,86.70
2018-11-29T05:15:05.638Z,86.90
2018-11-29T05:17:35.636Z,87.50
2018-11-29T05:20:05.182Z,87.50
2018-11-29T05:22:34.477Z,88.10
2018-11-29T05:25:04.790Z,87.60
2018-11-29T05:27:33.484Z,87.40
2018-11-29T05:30:02.689Z,89.20
2018-11-29T05:32:31.409Z,89.00
2018-11-29T05:35:00.749Z,88.40
2018-11-29T05:37:30.808Z,89.00
2018-11-29T05:40:00.781Z,89.60
2018-11-29T05:42:29.938Z,89.90
2018-11-29T05:44:59.305Z,89.10
2018-11-29T05:47:28.620Z,89.30
2018-11-29T05:49:58.447Z,90.10
2018-11-29T05:52:28.476Z,89.80
2018-11-29T05:54:58.349Z,90.20
2018-11-29T05:57:27.809Z,90.00
2018-11-29T05:59:57.297Z,90.20
2018-11-29T06:02:26.977Z,90.00
2018-11-29T06:04:56.377Z,89.90
2018-11-29T06:07:25.109Z,89.10
2018-11-29T06:09:54.001Z,88.50
2018-11-29T06:12:22.780Z,88.60
2018-11-29T06:14:51.533Z,89.10
2018-11-29T06:17:21.501Z,90.00
2018-11-29T06:19:51.715Z,89.50
2018-11-29T06:22:22.174Z,90.00
2018-11-29T06:24:51.729Z,90.00
2018-11-29T06:27:22.039Z,90.20
2018-11-29T06:29:52.270Z,90.00
2018-11-29T06:32:21.569Z,90.00
2018-11-29T06:34:50.887Z,89.60
2018-11-29T06:37:20.082Z,89.80
2018-11-29T06:39:49.389Z,89.80
2018-11-29T06:42:19.886Z,89.90
2018-11-29T06:44:48.602Z,89.90
2018-11-29T06:47:17.303Z,90.10
2018-11-29T06:49:45.981Z,90.30
2018-11-29T06:52:15.362Z,90.10
2018-11-29T06:54:44.121Z,90.00
2018-11-29T06:57:12.884Z,90.00
2018-11-29T06:59:42.038Z,89.60
2018-11-29T07:02:11.454Z,89.40
2018-11-29T07:04:40.163Z,89.60
2018-11-29T07:07:08.978Z,90.20
2018-11-29T07:09:37.665Z,90.00
2018-11-29T07:12:06.982Z,89.80
2018-11-29T07:14:36.219Z,90.20
2018-11-29T07:17:06.121Z,90.20
2018-11-29T07:19:35.429Z,89.80
2018-11-29T07:22:04.206Z,89.60
2018-11-29T07:24:32.861Z,89.60
2018-11-29T07:27:02.252Z,89.50
2018-11-29T07:29:30.918Z,88.50
2018-11-29T07:31:59.653Z,88.30
2018-11-29T07:34:28.334Z,89.20
2018-11-29T07:36:56.993Z,88.30
2018-11-29T07:39:25.667Z,87.70
2018-11-29T07:41:54.407Z,87.80
2018-11-29T07:44:23.129Z,88.40
2018-11-29T07:46:51.900Z,88.30
2018-11-29T07:49:20.840Z,88.60
2018-11-29T07:51:50.209Z,88.80
2018-11-29T07:54:18.902Z,87.80
2018-11-29T07:56:47.640Z,88.50
2018-11-29T07:59:16.337Z,86.90
2018-11-29T08:01:47.098Z,87.90
2018-11-29T08:04:16.485Z,87.40
2018-11-29T08:06:45.177Z,87.40
2018-11-29T08:09:15.229Z,87.10
2018-11-29T08:11:43.909Z,87.00
2018-11-29T08:14:12.613Z,86.40
2018-11-29T08:16:41.280Z,87.00
2018-11-29T08:19:09.986Z,86.20
2018-11-29T08:21:38.781Z,85.50
2018-11-29T08:24:07.981Z,86.30
2018-11-29T08:26:36.645Z,86.20
2018-11-29T08:29:05.502Z,87.00
2018-11-29T08:31:34.189Z,87.70
2018-11-29T08:34:03.515Z,87.00
2018-11-29T08:36:34.130Z,86.90
2018-11-29T08:39:03.711Z,86.10
2018-11-29T08:41:33.049Z,85.50
2018-11-29T08:44:01.806Z,85.40
2018-11-29T08:46:30.509Z,85.30
2018-11-29T08:48:59.297Z,85.80
2018-11-29T08:51:28.059Z,85.00
2018-11-29T08:53:59.054Z,84.80
2018-11-29T08:56:28.357Z,84.60
2018-11-29T08:58:58.010Z,84.80
2018-11-29T09:01:27.653Z,84.40
2018-11-29T09:03:56.983Z,85.10
2018-11-29T09:06:26.307Z,84.40
2018-11-29T09:08:55.778Z,84.30
2018-11-29T09:11:24.535Z,84.50
2018-11-29T09:13:53.859Z,84.40
2018-11-29T09:16:28.830Z,84.30
2018-11-29T09:18:58.612Z,83.60
2018-11-29T09:21:27.353Z,83.90
2018-11-29T09:23:56.116Z,84.20
2018-11-29T09:26:25.383Z,82.80
2018-11-29T09:28:54.177Z,82.60
2018-11-29T09:31:24.351Z,82.70
2018-11-29T09:33:53.078Z,83.20
2018-11-29T09:36:23.196Z,82.80
2018-11-29T09:38:52.170Z,82.40
2018-11-29T09:41:22.064Z,83.10
2018-11-29T09:43:50.818Z,82.50
2018-11-29T09:46:19.566Z,82.30
2018-11-29T09:48:49.238Z,82.90
2018-11-29T09:51:18.698Z,83.30
2018-11-29T09:53:47.386Z,83.40
2018-11-29T09:56:17.112Z,83.90
2018-11-29T09:58:47.414Z,84.70
2018-11-29T10:01:17.242Z,85.10
2018-11-29T10:03:47.027Z,85.00
2018-11-29T10:06:15.881Z,84.80
2018-11-29T10:08:45.294Z,85.00
2018-11-29T10:11:14.573Z,84.80
2018-11-29T10:13:46.324Z,85.10
2018-11-29T10:16:14.662Z,85.50
2018-11-29T10:18:43.353Z,85.70
2018-11-29T10:21:12.058Z,85.40
2018-11-29T10:23:40.875Z,84.30
2018-11-29T10:26:10.294Z,83.40
2018-11-29T10:28:39.733Z,83.90
2018-11-29T10:31:10.041Z,86.80
2018-11-29T10:33:39.465Z,85.70
2018-11-29T10:36:08.225Z,86.10
2018-11-29T10:38:37.008Z,87.10
2018-11-29T10:41:06.939Z,87.30
2018-11-29T10:43:35.623Z,88.60
2018-11-29T10:46:05.605Z,88.90
2018-11-29T10:49:39.271Z,88.10
2018-11-29T10:52:10.045Z,89.00
2018-11-29T10:54:40.522Z,87.70
2018-11-29T10:57:09.267Z,87.90
2018-11-29T10:59:38.539Z,87.60
2018-11-29T11:02:16.613Z,88.30
2018-11-29T11:04:46.029Z,88.30
2018-11-29T11:07:16.184Z,88.30
2018-11-29T11:09:46.074Z,88.20
2018-11-29T11:12:18.767Z,88.30
2018-11-29T11:14:46.119Z,88.50
2018-11-29T11:17:15.744Z,88.30
2018-11-29T11:19:45.651Z,87.60
2018-11-29T11:22:16.262Z,87.80
2018-11-29T11:24:45.185Z,88.00
2018-11-29T11:27:14.997Z,90.00
2018-11-29T11:29:44.283Z,90.10
2018-11-29T11:32:14.494Z,89.40
2018-11-29T11:34:43.256Z,90.10
2018-11-29T11:37:12.014Z,90.40
2018-11-29T11:39:42.568Z,90.60
2018-11-29T11:42:12.123Z,91.00
2018-11-29T11:44:43.815Z,90.40
2018-11-29T11:47:13.314Z,90.90
2018-11-29T11:49:41.994Z,91.10
2018-11-29T11:52:12.194Z,91.20
2018-11-29T11:54:42.179Z,90.90
2018-11-29T11:57:10.840Z,91.40
2018-11-29T11:59:40.097Z,91.50
2018-11-29T12:02:09.389Z,91.20
2018-11-29T12:04:38.743Z,91.70
2018-11-29T12:07:07.520Z,91.80
2018-11-29T12:09:37.025Z,91.60
2018-11-29T12:12:06.506Z,91.70
2018-11-29T12:14:35.995Z,91.10
2018-11-29T12:17:04.686Z,90.50
2018-11-29T12:19:34.949Z,90.70
2018-11-29T12:22:03.618Z,90.70
2018-11-29T12:24:32.903Z,90.40
2018-11-29T12:27:01.562Z,90.50
2018-11-29T12:29:30.250Z,90.30
2018-11-29T12:32:01.135Z,90.50
2018-11-29T12:34:30.956Z,90.40
2018-11-29T12:37:00.924Z,90.30
2018-11-29T12:39:29.634Z,90.40
2018-11-29T12:41:58.320Z,90.90
2018-11-29T12:44:27.046Z,90.50
2018-11-29T12:46:57.536Z,90.30
2018-11-29T12:49:27.452Z,90.40
2018-11-29T12:51:57.246Z,90.70
2018-11-29T12:54:27.917Z,90.40
2018-11-29T12:56:56.634Z,90.20
2018-11-29T12:59:25.374Z,90.20
2018-11-29T13:01:55.788Z,90.00
2018-11-29T13:04:24.573Z,90.50
2018-11-29T13:06:53.267Z,90.20
2018-11-29T13:09:23.349Z,90.20
2018-11-29T13:11:54.044Z,90.30
2018-11-29T13:14:23.520Z,90.20
2018-11-29T13:16:53.418Z,90.60
2018-11-29T13:19:23.366Z,90.50
2018-11-29T13:21:52.801Z,90.60
2018-11-29T13:24:22.661Z,90.60
2018-11-29T13:26:52.563Z,90.60
2018-11-29T13:29:21.889Z,90.90
2018-11-29T13:31:52.131Z,89.20
2018-11-29T13:34:22.249Z,90.40
2018-11-29T13:36:51.606Z,90.30
2018-11-29T13:39:21.014Z,90.20
2018-11-29T13:41:50.478Z,90.00
2018-11-29T13:44:20.647Z,88.90
2018-11-29T13:46:49.413Z,88.40
2018-11-29T13:49:18.810Z,89.40
2018-11-29T13:51:49.340Z,89.40
2018-11-29T13:54:19.295Z,88.90
2018-11-29T13:56:48.636Z,87.90
2018-11-29T13:59:18.514Z,87.90
2018-11-29T14:01:47.244Z,88.40
2018-11-29T14:04:17.350Z,87.30
2018-11-29T14:06:46.773Z,87.30
2018-11-29T14:09:16.581Z,87.40
2018-11-29T14:11:45.973Z,87.70
2018-11-29T14:14:16.421Z,87.60
2018-11-29T14:16:46.977Z,87.60
2018-11-29T14:19:17.861Z,87.40
2018-11-29T14:21:51.258Z,87.10
2018-11-29T14:24:18.078Z,86.10
2018-11-29T14:26:46.838Z,86.00
2018-11-29T14:29:16.242Z,85.50
2018-11-29T14:31:45.002Z,84.30
2018-11-29T14:34:14.990Z,85.00
2018-11-29T14:36:44.405Z,83.80
2018-11-29T14:39:15.066Z,83.30
2018-11-29T14:41:45.156Z,83.50
2018-11-29T14:44:13.828Z,83.40
2018-11-29T14:46:42.534Z,84.40
2018-11-29T14:49:11.198Z,83.40
2018-11-29T14:51:39.940Z,84.10
2018-11-29T14:54:10.138Z,83.40
2018-11-29T14:56:39.434Z,83.80
2018-11-29T14:59:08.730Z,83.70
2018-11-29T15:01:37.466Z,84.00
2018-11-29T15:04:06.205Z,82.90
2018-11-29T15:06:36.323Z,83.50
2018-11-29T15:09:06.697Z,83.50
2018-11-29T15:11:36.177Z,84.30
2018-11-29T15:14:05.119Z,83.70
2018-11-29T15:16:33.797Z,84.40
2018-11-29T15:19:02.573Z,84.40
2018-11-29T15:21:31.221Z,83.50
2018-11-29T15:23:59.910Z,83.40
2018-11-29T15:26:28.570Z,83.30
2018-11-29T15:28:57.294Z,83.30
2018-11-29T15:31:26.631Z,83.00
2018-11-29T15:33:55.403Z,84.20
2018-11-29T15:36:24.105Z,83.50
2018-11-29T15:38:52.894Z,82.80
2018-11-29T15:41:21.553Z,83.40
2018-11-29T15:43:50.217Z,83.20
2018-11-29T15:46:20.548Z,82.00
2018-11-29T15:48:50.257Z,83.40
2018-11-29T15:51:19.661Z,82.90
2018-11-29T15:53:48.366Z,83.70
2018-11-29T15:56:17.000Z,82.80
2018-11-29T15:58:45.722Z,83.80
2018-11-29T16:01:14.380Z,83.90
2018-11-29T16:03:43.071Z,82.00
2018-11-29T16:06:11.720Z,83.40
2018-11-29T16:08:40.400Z,81.60
2018-11-29T16:11:09.067Z,82.70
2018-11-29T16:13:37.764Z,83.00
2018-11-29T16:16:06.792Z,83.40
2018-11-29T16:18:35.452Z,81.80
2018-11-29T16:21:04.130Z,83.00
2018-11-29T16:23:32.806Z,81.90
2018-11-29T16:26:01.514Z,81.60
2018-11-29T16:28:30.675Z,81.70
2018-11-29T16:30:59.781Z,81.20
2018-11-29T16:33:33.047Z,80.60
2018-11-29T16:36:01.971Z,80.30
2018-11-29T16:38:30.800Z,80.20
2018-11-29T16:40:59.461Z,80.60
2018-11-29T16:43:28.162Z,79.70
2018-11-29T16:45:56.861Z,80.50
2018-11-29T16:48:26.214Z,80.20
2018-11-29T16:50:55.707Z,81.40
2018-11-29T16:53:24.352Z,79.60
2018-11-29T16:55:53.045Z,79.10
2018-11-29T16:58:23.870Z,79.10
2018-11-29T17:00:52.821Z,79.50
2018-11-29T17:03:21.501Z,79.70
2018-11-29T17:05:50.201Z,79.60
2018-11-29T17:08:19.471Z,79.20
2018-11-29T17:10:48.219Z,80.00
2018-11-29T17:13:18.101Z,78.00
2018-11-29T17:15:47.388Z,79.30
2018-11-29T17:18:17.145Z,79.30
2018-11-29T17:20:45.880Z,78.00
2018-11-29T17:23:14.575Z,77.90
2018-11-29T17:25:43.269Z,78.20
2018-11-29T17:28:12.580Z,79.00
2018-11-29T17:30:41.243Z,79.00
2018-11-29T17:33:10.106Z,78.40
2018-11-29T17:35:39.861Z,78.60
2018-11-29T17:38:08.594Z,78.40
2018-11-29T17:40:38.426Z,79.80
2018-11-29T17:43:08.041Z,78.90
2018-11-29T17:45:37.201Z,79.70
2018-11-29T17:48:08.674Z,76.70
2018-11-29T17:50:38.678Z,78.80
2018-11-29T17:53:07.879Z,77.70
2018-11-29T17:55:36.910Z,78.10
2018-11-29T17:58:10.009Z,77.60
2018-11-29T18:00:39.424Z,77.50
2018-11-29T18:03:08.619Z,78.10
2018-11-29T18:05:37.533Z,80.90
2018-11-29T18:08:07.917Z,80.00
2018-11-29T18:10:40.264Z,78.10
2018-11-29T18:13:12.123Z,78.20
2018-11-29T18:15:40.812Z,78.00
2018-11-29T18:18:10.014Z,78.40
2018-11-29T18:20:38.894Z,78.10
2018-11-29T18:23:08.713Z,78.90
2018-11-29T18:25:37.397Z,77.20
2018-11-29T18:28:07.264Z,78.70
2018-11-29T18:30:35.986Z,78.20
2018-11-29T18:33:04.737Z,79.20
2018-11-29T18:35:34.247Z,79.50
2018-11-29T18:38:03.005Z,77.70
2018-11-29T18:40:33.261Z,77.80
2018-11-29T18:43:02.007Z,77.20
2018-11-29T18:45:32.122Z,76.50
2018-11-29T18:48:02.918Z,76.60
2018-11-29T18:50:33.129Z,77.60
2018-11-29T18:53:02.813Z,77.30
2018-11-29T18:55:32.690Z,76.40
2018-11-29T18:58:02.241Z,77.20
2018-11-29T19:00:32.460Z,75.80
2018-11-29T19:03:01.809Z,76.80
2018-11-29T19:05:30.537Z,79.30
2018-11-29T19:08:00.825Z,77.00
2018-11-29T19:10:29.535Z,78.90
2018-11-29T19:12:59.769Z,76.10
2018-11-29T19:15:29.259Z,77.20
2018-11-29T19:17:58.570Z,77.20
2018-11-29T19:20:27.993Z,76.10
2018-11-29T19:22:58.417Z,76.60
2018-11-29T19:25:28.308Z,76.60
2018-11-29T19:27:57.485Z,77.10
2018-11-29T19:30:27.317Z,76.50
2018-11-29T19:33:03.609Z,78.00
2018-11-29T19:35:33.661Z,78.30
2018-11-29T19:38:04.292Z,77.60
2018-11-29T19:40:34.614Z,76.50
2018-11-29T19:43:04.048Z,77.30
2018-11-29T19:45:33.315Z,76.20
2018-11-29T19:48:01.953Z,76.30
2018-11-29T19:50:30.643Z,75.00
2018-11-29T19:53:00.154Z,76.30
2018-11-29T19:55:30.496Z,75.70
2018-11-29T19:57:59.136Z,75.70
2018-11-29T20:00:27.840Z,74.60
2018-11-29T20:02:57.149Z,75.00
2018-11-29T20:05:25.904Z,74.70
2018-11-29T20:07:55.363Z,75.60
2018-11-29T20:10:24.074Z,75.60
2018-11-29T20:12:59.948Z,75.10
2018-11-29T20:15:29.771Z,74.80
2018-11-29T20:17:58.427Z,78.40
2018-11-29T20:20:27.197Z,76.00
2018-11-29T20:22:56.041Z,74.60
2018-11-29T20:25:25.968Z,76.40
2018-11-29T20:27:54.663Z,76.40
2018-11-29T20:30:24.339Z,75.30
2018-11-29T20:32:54.159Z,75.70
2018-11-29T20:35:22.987Z,76.40
2018-11-29T20:37:52.676Z,75.20
2018-11-29T20:40:26.781Z,79.00
2018-11-29T20:42:56.684Z,79.30
2018-11-29T20:45:35.220Z,74.70
2018-11-29T20:48:10.358Z,76.70
2018-11-29T20:50:39.654Z,76.60
2018-11-29T20:53:09.924Z,75.00
2018-11-29T20:55:38.757Z,75.00
2018-11-29T20:58:09.720Z,75.70
2018-11-29T21:00:39.244Z,79.20
2018-11-29T21:03:09.339Z,75.60
2018-11-29T21:05:41.358Z,76.80
2018-11-29T21:08:11.532Z,76.20
2018-11-29T21:10:40.936Z,76.10
2018-11-29T21:13:10.945Z,75.20
2018-11-29T21:15:41.058Z,77.50
2018-11-29T21:18:12.211Z,75.60
2018-11-29T21:20:41.885Z,76.90
2018-11-29T21:23:12.423Z,75.60
2018-11-29T21:25:41.665Z,75.70
2018-11-29T21:28:11.761Z,75.70
2018-11-29T21:30:41.161Z,75.30
2018-11-29T21:33:11.143Z,76.90
2018-11-29T21:35:40.556Z,75.60
2018-11-29T21:38:13.979Z,78.80
2018-11-29T21:40:48.770Z,75.70
2018-11-29T21:43:17.496Z,74.00
2018-11-29T21:45:47.418Z,74.10
2018-11-29T21:48:17.522Z,76.40
2018-11-29T21:50:47.337Z,77.90
2018-11-29T21:53:17.806Z,78.80
2018-11-29T21:55:46.470Z,75.50
2018-11-29T21:58:15.851Z,74.80
2018-11-29T22:00:44.526Z,75.70
2018-11-29T22:03:14.986Z,77.10
2018-11-29T22:05:43.668Z,76.50
2018-11-29T22:08:13.729Z,75.80
2018-11-29T22:10:43.113Z,76.20
2018-11-29T22:13:13.905Z,74.80
2018-11-29T22:15:43.974Z,76.30
2018-11-29T22:18:17.246Z,74.80
2018-11-29T22:20:46.713Z,76.70
2018-11-29T22:23:17.443Z,77.70
2018-11-29T22:25:47.694Z,77.30
2018-11-29T22:28:17.499Z,76.50
2018-11-29T22:30:46.201Z,78.80
2018-11-29T22:33:15.533Z,75.10
2018-11-29T22:35:44.801Z,78.10
2018-11-29T22:38:14.217Z,75.80
2018-11-29T22:40:44.923Z,76.70
2018-11-29T22:43:15.118Z,78.50
2018-11-29T22:45:43.830Z,75.70
2018-11-29T22:48:13.117Z,75.10
2018-11-29T22:50:42.000Z,74.30
2018-11-29T22:53:10.672Z,76.60
2018-11-29T22:55:39.364Z,76.60
2018-11-29T22:58:08.041Z,73.40
2018-11-29T23:00:43.854Z,74.60
2018-11-29T23:03:13.124Z,75.70
2018-11-29T23:05:43.119Z,75.40
2018-11-29T23:08:12.329Z,77.90
2018-11-29T23:10:41.834Z,76.10
2018-11-29T23:13:12.080Z,74.70
2018-11-29T23:15:40.765Z,76.10
2018-11-29T23:18:10.642Z,78.60
2018-11-29T23:20:39.954Z,76.90
2018-11-29T23:23:09.278Z,77.10
2018-11-29T23:25:40.077Z,77.60
2018-11-29T23:28:11.030Z,76.40
2018-11-29T23:30:41.340Z,77.10
2018-11-29T23:33:10.075Z,77.80
2018-11-29T23:35:39.352Z,77.10
2018-11-29T23:38:10.059Z,78.20
2018-11-29T23:40:39.764Z,77.90
2018-11-29T23:43:10.575Z,77.50
2018-11-29T23:45:39.802Z,77.50
2018-11-29T23:48:08.985Z,79.10
2018-11-29T23:50:38.336Z,77.60
2018-11-29T23:53:07.681Z,76.90
2018-11-29T23:55:37.109Z,77.90
2018-11-29T23:58:05.873Z,77.70
